Time;durP1;ratioP1;P1;durP2;ratioP2;P2;SDS_P1;SDS_P2;PMS_P1;PMS_P2;Temp;Humidity;BMP_temperature;BMP_pressure;BME280_temperature;BME280_humidity;BME280_pressure;Samples;Min_cycle;Max_cycle;Signal;HPM_P1;HPM_P2
2021/09/26 00:01:47;;;;;;;9.07;1.27;;;;;;;;;;5048454;28;20043;-56
2021/09/26 00:04:12;;;;;;;7.50;0.90;;;;;;;;;;5051067;28;20068;-56
2021/09/26 00:06:38;;;;;;;7.47;1.10;;;;;;;;;;5049753;28;20535;-56
2021/09/26 00:09:04;;;;;;;9.25;1.10;;;;;;;;;;5051156;28;20047;-53
2021/09/26 00:11:31;;;;;;;10.75;1.17;;;;;;;;;;5048104;28;20041;-56
2021/09/26 00:13:56;;;;;;;9.57;1.23;;;;;;;;;;5048969;28;20036;-56
2021/09/26 00:16:22;;;;;;;4.47;0.82;;;;;;;;;;5048271;28;20045;-55
2021/09/26 00:18:49;;;;;;;6.50;1.20;;;;;;;;;;5048981;28;20171;-56
2021/09/26 00:21:15;;;;;;;3.15;0.75;;;;;;;;;;5048308;28;20070;-55
2021/09/26 00:23:41;;;;;;;5.68;1.02;;;;;;;;;;5045935;28;20047;-55
2021/09/26 00:26:07;;;;;;;10.63;1.58;;;;;;;;;;5049000;28;20044;-56
2021/09/26 00:28:35;;;;;;;4.13;0.98;;;;;;;;;;5047580;28;20055;-56
2021/09/26 00:31:01;;;;;;;5.18;1.35;;;;;;;;;;5049202;28;20040;-54
2021/09/26 00:33:27;;;;;;;4.43;1.00;;;;;;;;;;5049301;28;20508;-55
2021/09/26 00:35:53;;;;;;;6.55;1.10;;;;;;;;;;5047966;28;20053;-56
2021/09/26 00:38:19;;;;;;;7.32;1.00;;;;;;;;;;5050109;28;20445;-55
2021/09/26 00:40:48;;;;;;;6.88;1.20;;;;;;;;;;5048327;28;20045;-55
2021/09/26 00:43:14;;;;;;;2.25;0.70;;;;;;;;;;5046843;28;20738;-56
2021/09/26 00:45:40;;;;;;;6.85;1.30;;;;;;;;;;5047782;28;20041;-53
2021/09/26 00:48:06;;;;;;;5.35;0.90;;;;;;;;;;5048992;28;20136;-55
2021/09/26 00:50:32;;;;;;;9.75;0.90;;;;;;;;;;5031988;28;20044;-55
2021/09/26 00:52:58;;;;;;;4.95;1.05;;;;;;;;;;5047724;28;20100;-56
2021/09/26 00:55:24;;;;;;;9.10;1.58;;;;;;;;;;5048001;28;20080;-56
2021/09/26 00:57:50;;;;;;;7.10;0.95;;;;;;;;;;5047422;28;20052;-56
2021/09/26 01:00:17;;;;;;;8.40;1.40;;;;;;;;;;5048108;28;20164;-57
2021/09/26 01:02:43;;;;;;;5.90;1.02;;;;;;;;;;5026369;28;20094;-55
2021/09/26 01:05:11;;;;;;;7.97;1.10;;;;;;;;;;5047258;28;20405;-56
2021/09/26 01:07:46;;;;;;;7.47;0.90;;;;;;;;;;5047895;28;20166;-56
2021/09/26 01:10:23;;;;;;;4.78;0.98;;;;;;;;;;5046935;28;20515;-56
2021/09/26 01:12:57;;;;;;;5.32;0.75;;;;;;;;;;5046704;28;20040;-57
2021/09/26 01:15:34;;;;;;;7.53;0.93;;;;;;;;;;5045389;28;20366;-56
2021/09/26 01:18:11;;;;;;;6.85;1.10;;;;;;;;;;5048186;28;20061;-55
2021/09/26 01:20:46;;;;;;;3.88;1.00;;;;;;;;;;5045375;28;20045;-55
2021/09/26 01:23:21;;;;;;;2.45;0.77;;;;;;;;;;5044640;28;20513;-54
2021/09/26 01:26:06;;;;;;;2.42;0.70;;;;;;;;;;5045591;28;20074;-57
2021/09/26 01:28:38;;;;;;;3.70;0.88;;;;;;;;;;5046596;28;20137;-54
2021/09/26 01:31:14;;;;;;;7.45;1.08;;;;;;;;;;5047731;28;20075;-57
2021/09/26 01:33:42;;;;;;;4.35;0.73;;;;;;;;;;5046752;28;20540;-56
2021/09/26 01:36:27;;;;;;;8.88;1.20;;;;;;;;;;5048449;28;20048;-56
2021/09/26 01:38:59;;;;;;;8.73;1.20;;;;;;;;;;5046205;28;20110;-55
2021/09/26 01:41:38;;;;;;;4.95;1.00;;;;;;;;;;5045379;28;20051;-54
2021/09/26 01:44:07;;;;;;;9.35;1.30;;;;;;;;;;5045947;28;20057;-54
2021/09/26 01:46:37;;;;;;;4.82;1.50;;;;;;;;;;5044592;28;20095;-55
2021/09/26 01:49:04;;;;;;;7.10;1.20;;;;;;;;;;5047809;28;20761;-55
2021/09/26 01:51:33;;;;;;;9.55;1.50;;;;;;;;;;5045388;28;20163;-55
2021/09/26 01:54:00;;;;;;;6.57;1.10;;;;;;;;;;5048095;28;20179;-53
2021/09/26 01:56:26;;;;;;;7.22;1.10;;;;;;;;;;5046477;28;20072;-54
2021/09/26 01:58:52;;;;;;;3.80;1.13;;;;;;;;;;5047038;28;20036;-55
2021/09/26 02:01:18;;;;;;;6.20;1.27;;;;;;;;;;5047461;28;20064;-56
2021/09/26 02:03:45;;;;;;;5.57;1.15;;;;;;;;;;5044964;28;20048;-55
2021/09/26 02:06:11;;;;;;;5.53;0.90;;;;;;;;;;5047453;28;20037;-55
2021/09/26 02:08:39;;;;;;;4.38;1.02;;;;;;;;;;5047539;28;20441;-56
2021/09/26 02:11:05;;;;;;;3.53;0.85;;;;;;;;;;5048863;28;20385;-56
2021/09/26 02:13:32;;;;;;;3.88;0.90;;;;;;;;;;5049022;28;20045;-55
2021/09/26 02:15:58;;;;;;;5.10;1.10;;;;;;;;;;5049829;28;20158;-55
2021/09/26 02:18:24;;;;;;;4.88;1.05;;;;;;;;;;5050995;28;20465;-54
2021/09/26 02:20:51;;;;;;;7.20;1.30;;;;;;;;;;5052433;28;20040;-56
2021/09/26 02:23:17;;;;;;;11.98;1.55;;;;;;;;;;5049160;28;20562;-54
2021/09/26 02:25:43;;;;;;;9.52;1.60;;;;;;;;;;5052422;28;20033;-53
2021/09/26 02:28:10;;;;;;;11.68;1.35;;;;;;;;;;5050062;28;20402;-55
2021/09/26 02:30:36;;;;;;;8.43;1.35;;;;;;;;;;5050227;28;20045;-55
2021/09/26 02:33:02;;;;;;;12.10;1.77;;;;;;;;;;5048956;28;20075;-55
2021/09/26 02:35:28;;;;;;;6.88;1.30;;;;;;;;;;5050001;28;20094;-55
2021/09/26 02:37:54;;;;;;;8.02;1.40;;;;;;;;;;5050497;28;20124;-56
2021/09/26 02:40:20;;;;;;;3.97;1.35;;;;;;;;;;5048506;28;20044;-55
2021/09/26 02:42:55;;;;;;;9.45;1.45;;;;;;;;;;5041629;28;20056;-54
2021/09/26 02:45:33;;;;;;;5.35;1.83;;;;;;;;;;5032443;28;21024;-55
2021/09/26 02:48:02;;;;;;;11.18;2.88;;;;;;;;;;5034272;28;20041;-56
2021/09/26 02:50:28;;;;;;;8.45;2.75;;;;;;;;;;5031586;28;20041;-55
2021/09/26 02:52:54;;;;;;;9.70;2.60;;;;;;;;;;5033931;28;20056;-55
2021/09/26 02:55:21;;;;;;;12.88;2.15;;;;;;;;;;5034518;28;20047;-54
2021/09/26 02:57:47;;;;;;;13.13;2.35;;;;;;;;;;5033579;28;20742;-55
2021/09/26 03:00:13;;;;;;;7.47;2.25;;;;;;;;;;5035581;28;20149;-56
2021/09/26 03:02:39;;;;;;;13.18;1.85;;;;;;;;;;5033382;28;20534;-53
2021/09/26 03:05:06;;;;;;;5.20;2.00;;;;;;;;;;5035526;28;20041;-55
2021/09/26 03:07:32;;;;;;;7.80;1.75;;;;;;;;;;5034238;28;20505;-55
2021/09/26 03:09:58;;;;;;;12.32;2.05;;;;;;;;;;5031228;28;20041;-55
2021/09/26 03:12:24;;;;;;;10.85;2.03;;;;;;;;;;5034468;28;20037;-54
2021/09/26 03:14:50;;;;;;;11.10;2.45;;;;;;;;;;5035186;28;20044;-55
2021/09/26 03:17:16;;;;;;;18.80;2.13;;;;;;;;;;5033742;28;20052;-54
2021/09/26 03:19:42;;;;;;;8.48;1.85;;;;;;;;;;5031620;28;20038;-53
2021/09/26 03:22:09;;;;;;;8.20;2.20;;;;;;;;;;5032542;28;20061;-55
2021/09/26 03:24:35;;;;;;;6.82;2.10;;;;;;;;;;5035116;28;20040;-54
2021/09/26 03:27:03;;;;;;;9.20;2.30;;;;;;;;;;5033268;28;20057;-55
2021/09/26 03:29:32;;;;;;;8.35;2.40;;;;;;;;;;5033552;28;20040;-57
2021/09/26 03:31:58;;;;;;;12.65;2.47;;;;;;;;;;5033638;28;20033;-55
2021/09/26 03:34:24;;;;;;;8.80;2.88;;;;;;;;;;5012323;28;20037;-55
2021/09/26 03:36:50;;;;;;;6.72;2.22;;;;;;;;;;5033393;28;20063;-56
2021/09/26 03:39:16;;;;;;;12.63;3.08;;;;;;;;;;5031654;28;21670;-55
2021/09/26 03:41:41;;;;;;;12.30;2.72;;;;;;;;;;5032818;28;20048;-56
2021/09/26 03:44:07;;;;;;;13.23;3.17;;;;;;;;;;5048969;28;20036;-56
2021/09/26 03:46:33;;;;;;;10.70;2.63;;;;;;;;;;5048743;28;20053;-56
2021/09/26 03:48:59;;;;;;;7.75;2.55;;;;;;;;;;5051311;28;20037;-56
2021/09/26 03:51:25;;;;;;;6.72;2.40;;;;;;;;;;5047483;28;20067;-55
2021/09/26 03:53:50;;;;;;;10.07;3.03;;;;;;;;;;5050832;28;20809;-56
2021/09/26 03:56:18;;;;;;;15.57;3.17;;;;;;;;;;5048703;28;20064;-56
2021/09/26 03:58:45;;;;;;;16.30;2.80;;;;;;;;;;5049521;28;20045;-56
2021/09/26 04:01:10;;;;;;;13.13;3.33;;;;;;;;;;5051757;28;20963;-55
2021/09/26 04:03:36;;;;;;;15.50;3.97;;;;;;;;;;5033850;28;20081;-56
2021/09/26 04:06:05;;;;;;;8.68;3.03;;;;;;;;;;5050425;28;20037;-55
2021/09/26 04:08:31;;;;;;;9.73;2.65;;;;;;;;;;5035241;28;20170;-54
2021/09/26 04:10:56;;;;;;;10.00;2.20;;;;;;;;;;5048861;28;20044;-56
2021/09/26 04:13:22;;;;;;;8.70;2.53;;;;;;;;;;5035427;28;20041;-56
2021/09/26 04:15:48;;;;;;;7.93;2.47;;;;;;;;;;5050191;28;20049;-56
2021/09/26 04:18:14;;;;;;;11.63;2.55;;;;;;;;;;5049617;28;21115;-56
2021/09/26 04:20:40;;;;;;;11.60;2.50;;;;;;;;;;5048562;28;20097;-55
2021/09/26 04:23:05;;;;;;;5.40;1.92;;;;;;;;;;5047852;28;20043;-54
2021/09/26 04:25:31;;;;;;;7.95;2.03;;;;;;;;;;5047686;28;20189;-56
2021/09/26 04:27:58;;;;;;;11.13;2.47;;;;;;;;;;5050347;28;20036;-56
2021/09/26 04:30:24;;;;;;;5.05;1.77;;;;;;;;;;5047627;28;20136;-52
2021/09/26 04:32:51;;;;;;;5.53;2.00;;;;;;;;;;5046257;28;20508;-55
2021/09/26 04:35:16;;;;;;;9.55;1.80;;;;;;;;;;5048671;28;20041;-56
2021/09/26 04:37:42;;;;;;;8.30;1.90;;;;;;;;;;5047101;28;20060;-56
2021/09/26 04:40:08;;;;;;;7.57;1.92;;;;;;;;;;5047483;28;20456;-55
2021/09/26 04:42:34;;;;;;;6.18;1.75;;;;;;;;;;5047831;28;20079;-55
2021/09/26 04:45:00;;;;;;;11.10;2.03;;;;;;;;;;5050146;28;20053;-55
2021/09/26 04:47:26;;;;;;;8.27;2.15;;;;;;;;;;5046042;28;20056;-55
2021/09/26 04:49:52;;;;;;;11.50;2.15;;;;;;;;;;5049405;28;20040;-55
2021/09/26 04:52:17;;;;;;;9.10;2.30;;;;;;;;;;5044269;28;20653;-54
2021/09/26 04:54:43;;;;;;;9.77;1.90;;;;;;;;;;5046443;28;20049;-56
2021/09/26 04:57:09;;;;;;;7.13;1.98;;;;;;;;;;5046452;28;20844;-53
2021/09/26 04:59:35;;;;;;;11.00;2.28;;;;;;;;;;5047524;28;20072;-53
2021/09/26 05:02:01;;;;;;;7.95;2.33;;;;;;;;;;5046804;28;20096;-54
2021/09/26 05:04:27;;;;;;;16.95;2.47;;;;;;;;;;5046300;28;20080;-55
2021/09/26 05:06:53;;;;;;;9.10;2.53;;;;;;;;;;5047643;28;20063;-54
2021/09/26 05:09:19;;;;;;;14.00;3.92;;;;;;;;;;5048394;28;20065;-53
2021/09/26 05:11:45;;;;;;;14.00;3.42;;;;;;;;;;5049980;28;21987;-56
2021/09/26 05:14:11;;;;;;;10.43;4.30;;;;;;;;;;5029477;28;20037;-56
2021/09/26 05:16:37;;;;;;;17.30;3.75;;;;;;;;;;5048325;28;20567;-56
2021/09/26 05:19:04;;;;;;;10.73;4.70;;;;;;;;;;5048089;28;20060;-55
2021/09/26 05:21:30;;;;;;;13.85;4.80;;;;;;;;;;5046259;28;20632;-55
2021/09/26 05:23:56;;;;;;;15.32;4.88;;;;;;;;;;5048771;28;20066;-55
2021/09/26 05:26:22;;;;;;;15.05;4.68;;;;;;;;;;5047812;28;20053;-54
2021/09/26 05:28:48;;;;;;;11.52;3.92;;;;;;;;;;5047458;28;20123;-56
2021/09/26 05:31:14;;;;;;;10.60;3.85;;;;;;;;;;5047296;28;20114;-53
2021/09/26 05:33:40;;;;;;;13.20;3.17;;;;;;;;;;5046695;28;20036;-54
2021/09/26 05:36:05;;;;;;;14.50;6.15;;;;;;;;;;5050273;28;20174;-55
2021/09/26 05:38:31;;;;;;;20.00;8.77;;;;;;;;;;5049037;28;20529;-55
2021/09/26 05:40:57;;;;;;;24.60;9.63;;;;;;;;;;5026251;28;20059;-56
2021/09/26 05:43:23;;;;;;;19.50;8.73;;;;;;;;;;5047538;28;20438;-54
2021/09/26 05:45:49;;;;;;;16.98;8.55;;;;;;;;;;5030999;28;20570;-54
2021/09/26 05:48:15;;;;;;;20.83;9.00;;;;;;;;;;5049115;28;20596;-56
2021/09/26 05:50:42;;;;;;;17.92;8.07;;;;;;;;;;5048106;28;20036;-55
2021/09/26 05:53:08;;;;;;;18.58;7.82;;;;;;;;;;5028508;28;20033;-55
2021/09/26 05:55:34;;;;;;;16.13;7.45;;;;;;;;;;5047193;28;20036;-55
2021/09/26 05:58:00;;;;;;;16.33;6.30;;;;;;;;;;5046887;28;20032;-56
2021/09/26 06:00:26;;;;;;;15.35;6.53;;;;;;;;;;5048710;28;20179;-55
2021/09/26 06:02:52;;;;;;;17.30;6.25;;;;;;;;;;5046050;28;20074;-55
2021/09/26 06:05:18;;;;;;;15.88;6.10;;;;;;;;;;5046453;28;20047;-55
2021/09/26 06:07:44;;;;;;;14.38;5.30;;;;;;;;;;5047365;28;20037;-55
2021/09/26 06:10:10;;;;;;;15.70;5.20;;;;;;;;;;5048037;28;20044;-53
2021/09/26 06:12:36;;;;;;;15.95;4.45;;;;;;;;;;5047111;28;20485;-54
2021/09/26 06:15:06;;;;;;;10.05;3.47;;;;;;;;;;5045970;28;20044;-54
2021/09/26 06:17:32;;;;;;;14.20;3.63;;;;;;;;;;5045519;28;20052;-55
2021/09/26 06:19:58;;;;;;;14.27;4.10;;;;;;;;;;5047036;28;20041;-56
2021/09/26 06:22:25;;;;;;;15.73;3.85;;;;;;;;;;5045107;28;20056;-56
2021/09/26 06:24:52;;;;;;;13.18;3.58;;;;;;;;;;5045632;28;20223;-55
2021/09/26 06:27:19;;;;;;;16.05;4.18;;;;;;;;;;5044464;28;20048;-56
2021/09/26 06:29:45;;;;;;;13.20;5.13;;;;;;;;;;5045853;28;20608;-55
2021/09/26 06:32:10;;;;;;;10.27;4.95;;;;;;;;;;5028613;28;20041;-54
2021/09/26 06:34:37;;;;;;;13.20;4.47;;;;;;;;;;5024555;28;20102;-57
2021/09/26 06:37:05;;;;;;;14.75;4.65;;;;;;;;;;5025440;28;20076;-56
2021/09/26 06:39:32;;;;;;;9.75;4.18;;;;;;;;;;5044692;28;20140;-56
2021/09/26 06:41:58;;;;;;;13.07;4.10;;;;;;;;;;5044300;28;20056;-56
2021/09/26 06:44:23;;;;;;;10.93;4.18;;;;;;;;;;5046862;28;20040;-53
2021/09/26 06:46:49;;;;;;;12.88;4.43;;;;;;;;;;5046034;28;20037;-56
2021/09/26 06:49:15;;;;;;;10.40;4.30;;;;;;;;;;5046770;28;20036;-54
2021/09/26 06:51:41;;;;;;;13.68;4.13;;;;;;;;;;5042972;28;20128;-56
2021/09/26 06:54:07;;;;;;;9.63;3.90;;;;;;;;;;5045980;28;20047;-56
2021/09/26 06:56:33;;;;;;;9.32;4.10;;;;;;;;;;5045246;28;20140;-55
2021/09/26 06:58:59;;;;;;;11.50;3.58;;;;;;;;;;5047447;28;20271;-55
2021/09/26 07:01:24;;;;;;;8.95;3.78;;;;;;;;;;5049004;28;20044;-53
2021/09/26 07:03:50;;;;;;;9.20;3.83;;;;;;;;;;5049517;28;20574;-55
2021/09/26 07:06:16;;;;;;;10.65;3.55;;;;;;;;;;5049040;28;20377;-55
2021/09/26 07:08:42;;;;;;;7.90;4.00;;;;;;;;;;5050618;28;20119;-53
2021/09/26 07:11:08;;;;;;;8.90;3.58;;;;;;;;;;5049023;28;20064;-55
2021/09/26 07:13:33;;;;;;;25.55;3.95;;;;;;;;;;5049952;28;20127;-55
2021/09/26 07:16:00;;;;;;;7.13;3.40;;;;;;;;;;5049305;28;20985;-56
2021/09/26 07:18:26;;;;;;;11.60;3.63;;;;;;;;;;5048533;28;20040;-56
2021/09/26 07:20:52;;;;;;;11.02;3.63;;;;;;;;;;5047723;28;20464;-54
2021/09/26 07:23:18;;;;;;;8.77;3.58;;;;;;;;;;5047443;28;20021;-56
2021/09/26 07:25:43;;;;;;;11.05;3.65;;;;;;;;;;5050724;28;20049;-56
2021/09/26 07:28:09;;;;;;;13.07;3.45;;;;;;;;;;5049289;28;20513;-53
2021/09/26 07:30:35;;;;;;;13.25;3.78;;;;;;;;;;5050385;28;20041;-56
2021/09/26 07:33:01;;;;;;;10.68;4.57;;;;;;;;;;5049808;28;20462;-55
2021/09/26 07:35:27;;;;;;;13.80;4.80;;;;;;;;;;5039489;28;20558;-55
2021/09/26 07:37:53;;;;;;;18.58;4.13;;;;;;;;;;5033454;28;20071;-53
2021/09/26 07:40:19;;;;;;;9.18;4.22;;;;;;;;;;5036438;28;20532;-57
2021/09/26 07:42:45;;;;;;;11.10;3.80;;;;;;;;;;5040055;28;20045;-55
2021/09/26 07:45:13;;;;;;;10.52;3.83;;;;;;;;;;5034297;28;20129;-56
2021/09/26 07:47:39;;;;;;;9.98;4.18;;;;;;;;;;5034266;28;20048;-55
2021/09/26 07:50:05;;;;;;;12.20;4.22;;;;;;;;;;5014453;28;20569;-56
2021/09/26 07:52:31;;;;;;;11.90;4.50;;;;;;;;;;5034520;28;20037;-55
2021/09/26 07:54:57;;;;;;;14.18;4.78;;;;;;;;;;5033140;28;20070;-55
2021/09/26 07:57:23;;;;;;;8.30;3.95;;;;;;;;;;5033353;28;20052;-54
2021/09/26 07:59:50;;;;;;;15.02;4.05;;;;;;;;;;5033051;28;20041;-54
2021/09/26 08:02:15;;;;;;;12.52;5.63;;;;;;;;;;5032606;28;20903;-55
2021/09/26 08:04:41;;;;;;;9.45;4.38;;;;;;;;;;5030148;28;20041;-54
2021/09/26 08:07:07;;;;;;;8.40;4.28;;;;;;;;;;5033739;28;20043;-55
2021/09/26 08:09:33;;;;;;;10.25;4.43;;;;;;;;;;5032008;28;20128;-55
2021/09/26 08:11:59;;;;;;;12.52;4.35;;;;;;;;;;5032763;28;20045;-55
2021/09/26 08:14:25;;;;;;;13.15;4.25;;;;;;;;;;5031163;28;20074;-55
2021/09/26 08:16:51;;;;;;;10.52;3.95;;;;;;;;;;5032018;28;20380;-55
2021/09/26 08:19:17;;;;;;;8.13;4.28;;;;;;;;;;5012020;28;20084;-54
2021/09/26 08:21:42;;;;;;;9.35;4.10;;;;;;;;;;5033373;28;20033;-56
2021/09/26 08:24:08;;;;;;;8.05;3.75;;;;;;;;;;5034345;28;20799;-54
2021/09/26 08:26:35;;;;;;;9.13;3.70;;;;;;;;;;5030828;28;20056;-55
2021/09/26 08:29:01;;;;;;;6.65;3.72;;;;;;;;;;5032796;28;20037;-54
2021/09/26 08:31:27;;;;;;;10.20;3.92;;;;;;;;;;5030026;28;20052;-55
2021/09/26 08:33:52;;;;;;;11.38;3.70;;;;;;;;;;5032966;28;20188;-55
2021/09/26 08:36:18;;;;;;;10.45;3.97;;;;;;;;;;5031390;28;20077;-56
2021/09/26 08:38:45;;;;;;;7.25;3.75;;;;;;;;;;5031647;28;20040;-55
2021/09/26 08:41:11;;;;;;;10.25;4.10;;;;;;;;;;5032173;28;21087;-55
2021/09/26 08:43:36;;;;;;;9.77;4.00;;;;;;;;;;5046522;28;20056;-54
2021/09/26 08:46:02;;;;;;;12.65;4.03;;;;;;;;;;5049278;28;20040;-55
2021/09/26 08:48:29;;;;;;;10.48;3.55;;;;;;;;;;5047593;28;20124;-54
2021/09/26 08:50:55;;;;;;;12.30;3.75;;;;;;;;;;5047407;28;20127;-54
2021/09/26 08:53:25;;;;;;;13.65;4.05;;;;;;;;;;5045969;28;20041;-55
2021/09/26 08:55:51;;;;;;;11.27;3.70;;;;;;;;;;5049028;28;20209;-55
2021/09/26 08:58:17;;;;;;;11.38;4.10;;;;;;;;;;5048137;28;20036;-54
2021/09/26 09:00:43;;;;;;;9.63;3.55;;;;;;;;;;5047059;28;20037;-55
2021/09/26 09:03:10;;;;;;;17.45;3.88;;;;;;;;;;5047721;28;20623;-54
2021/09/26 09:05:39;;;;;;;9.77;3.92;;;;;;;;;;5027493;28;20442;-55
2021/09/26 09:08:04;;;;;;;10.77;3.83;;;;;;;;;;5045572;28;20052;-55
2021/09/26 09:10:37;;;;;;;14.18;3.83;;;;;;;;;;5046096;28;20051;-56
2021/09/26 09:13:03;;;;;;;12.07;3.45;;;;;;;;;;5044626;28;20500;-56
2021/09/26 09:15:29;;;;;;;8.07;3.55;;;;;;;;;;5025507;28;20121;-55
2021/09/26 09:18:00;;;;;;;9.55;3.70;;;;;;;;;;5044897;28;20052;-55
2021/09/26 09:20:29;;;;;;;7.32;3.50;;;;;;;;;;5044515;28;20037;-55
2021/09/26 09:22:56;;;;;;;12.48;3.90;;;;;;;;;;5046038;28;20037;-54
2021/09/26 09:25:40;;;;;;;12.70;3.83;;;;;;;;;;5045837;28;20156;-56
2021/09/26 09:28:16;;;;;;;9.05;3.55;;;;;;;;;;5046516;28;20444;-57
2021/09/26 09:30:44;;;;;;;16.05;3.58;;;;;;;;;;5044423;28;20041;-56
2021/09/26 09:33:10;;;;;;;11.95;3.50;;;;;;;;;;5045689;28;20032;-52
2021/09/26 09:35:37;;;;;;;10.02;4.03;;;;;;;;;;5045010;28;20485;-56
2021/09/26 09:38:03;;;;;;;10.52;4.15;;;;;;;;;;5026370;28;20205;-56
2021/09/26 09:40:28;;;;;;;12.05;4.00;;;;;;;;;;5033014;28;20044;-56
2021/09/26 09:42:55;;;;;;;10.82;3.92;;;;;;;;;;5036965;28;20136;-54
2021/09/26 09:45:24;;;;;;;8.25;3.45;;;;;;;;;;5030802;28;20493;-55
2021/09/26 09:48:10;;;;;;;9.50;3.63;;;;;;;;;;5029866;28;20133;-55
2021/09/26 09:50:43;;;;;;;7.22;3.13;;;;;;;;;;5029121;28;20037;-54
2021/09/26 09:53:18;;;;;;;8.30;3.58;;;;;;;;;;5030818;28;20076;-53
2021/09/26 09:55:44;;;;;;;8.43;3.38;;;;;;;;;;5031977;28;20060;-55
2021/09/26 09:58:14;;;;;;;7.07;3.40;;;;;;;;;;5031183;28;20046;-56
2021/09/26 10:00:54;;;;;;;8.43;2.95;;;;;;;;;;5031643;28;20076;-55
2021/09/26 10:03:52;;;;;;;10.30;3.33;;;;;;;;;;5032451;28;20191;-55
2021/09/26 10:06:20;;;;;;;12.23;3.50;;;;;;;;;;4985351;28;20037;-55
2021/09/26 10:08:46;;;;;;;5.72;2.72;;;;;;;;;;5033072;28;20049;-55
2021/09/26 10:11:12;;;;;;;6.95;2.85;;;;;;;;;;5032845;28;20803;-55
2021/09/26 10:13:38;;;;;;;11.00;3.65;;;;;;;;;;5029800;28;20038;-54
2021/09/26 10:16:08;;;;;;;8.77;3.03;;;;;;;;;;5029852;28;20048;-56
2021/09/26 10:18:34;;;;;;;6.82;2.92;;;;;;;;;;5029437;28;20052;-53
2021/09/26 10:21:01;;;;;;;10.68;2.85;;;;;;;;;;5027586;28;20638;-55
2021/09/26 10:23:27;;;;;;;8.60;3.03;;;;;;;;;;5016302;28;20052;-55
2021/09/26 10:25:54;;;;;;;6.63;2.80;;;;;;;;;;5028823;28;20037;-55
2021/09/26 10:28:23;;;;;;;6.70;2.40;;;;;;;;;;5027900;28;20128;-55
2021/09/26 10:30:49;;;;;;;7.50;2.47;;;;;;;;;;5029756;28;20502;-56
2021/09/26 10:33:16;;;;;;;4.80;2.13;;;;;;;;;;5030683;28;20209;-55
2021/09/26 10:35:42;;;;;;;5.20;2.70;;;;;;;;;;5035594;28;20045;-56
2021/09/26 10:38:10;;;;;;;5.93;2.30;;;;;;;;;;5034847;28;20272;-55
2021/09/26 10:40:37;;;;;;;7.28;2.33;;;;;;;;;;5032505;28;20064;-55
2021/09/26 10:43:23;;;;;;;10.80;2.33;;;;;;;;;;5043739;28;20036;-54
2021/09/26 10:46:09;;;;;;;5.05;2.20;;;;;;;;;;5046009;28;20041;-55
2021/09/26 10:48:53;;;;;;;10.82;2.60;;;;;;;;;;5048491;28;20040;-55
2021/09/26 10:51:51;;;;;;;11.43;2.75;;;;;;;;;;5036633;28;20051;-55
2021/09/26 10:54:23;;;;;;;6.97;2.45;;;;;;;;;;4997431;28;20041;-55
2021/09/26 10:56:50;;;;;;;4.97;2.17;;;;;;;;;;5048846;28;20060;-55
2021/09/26 10:59:16;;;;;;;7.28;2.25;;;;;;;;;;5048613;28;20079;-57
2021/09/26 11:01:42;;;;;;;5.88;2.10;;;;;;;;;;5050124;28;20472;-56
2021/09/26 11:04:11;;;;;;;6.55;2.20;;;;;;;;;;5049471;28;20044;-55
2021/09/26 11:06:37;;;;;;;10.18;2.50;;;;;;;;;;5049672;28;20136;-55
2021/09/26 11:09:04;;;;;;;4.75;2.17;;;;;;;;;;5051504;28;20044;-56
2021/09/26 11:11:33;;;;;;;7.70;2.80;;;;;;;;;;5047771;28;20147;-54
2021/09/26 11:13:59;;;;;;;9.15;2.38;;;;;;;;;;5048844;28;20045;-53
2021/09/26 11:16:25;;;;;;;7.85;2.40;;;;;;;;;;5049690;28;20059;-55
2021/09/26 11:18:56;;;;;;;8.07;2.95;;;;;;;;;;5048920;28;20500;-53
2021/09/26 11:21:37;;;;;;;7.03;2.63;;;;;;;;;;5048066;28;20071;-56
2021/09/26 11:24:03;;;;;;;10.77;2.78;;;;;;;;;;5047904;28;20087;-56
2021/09/26 11:26:48;;;;;;;10.43;2.80;;;;;;;;;;5047928;28;20046;-55
2021/09/26 11:29:13;;;;;;;12.27;2.83;;;;;;;;;;5048207;28;20154;-56
2021/09/26 11:31:41;;;;;;;6.68;2.80;;;;;;;;;;5046213;28;20533;-56
2021/09/26 11:34:07;;;;;;;9.93;2.58;;;;;;;;;;5048318;28;20052;-56
2021/09/26 11:36:33;;;;;;;7.75;2.33;;;;;;;;;;5048601;28;20064;-56
2021/09/26 11:39:19;;;;;;;7.85;2.65;;;;;;;;;;5047742;28;20028;-56
2021/09/26 11:41:44;;;;;;;6.82;2.55;;;;;;;;;;5048092;28;20044;-56
2021/09/26 11:44:10;;;;;;;7.53;2.72;;;;;;;;;;5048000;28;20032;-56
2021/09/26 11:46:36;;;;;;;6.43;2.63;;;;;;;;;;5045937;28;20041;-56
2021/09/26 11:49:07;;;;;;;4.72;2.22;;;;;;;;;;5047857;28;20043;-56
2021/09/26 11:51:33;;;;;;;5.43;2.38;;;;;;;;;;5050086;28;20123;-54
2021/09/26 11:54:00;;;;;;;8.27;2.75;;;;;;;;;;5050184;28;20086;-55
2021/09/26 11:56:30;;;;;;;6.15;2.50;;;;;;;;;;5046847;28;20044;-56
2021/09/26 11:58:58;;;;;;;8.80;2.58;;;;;;;;;;5048686;28;20041;-55
2021/09/26 12:01:28;;;;;;;7.55;2.22;;;;;;;;;;5048326;28;20043;-55
2021/09/26 12:04:04;;;;;;;6.13;2.90;;;;;;;;;;5049193;28;20053;-55
2021/09/26 12:06:30;;;;;;;8.57;2.45;;;;;;;;;;5046665;28;20178;-56
2021/09/26 12:08:55;;;;;;;7.88;2.40;;;;;;;;;;5048065;28;20097;-55
2021/09/26 12:11:21;;;;;;;7.95;2.47;;;;;;;;;;5048221;28;20816;-56
2021/09/26 12:13:49;;;;;;;11.07;2.70;;;;;;;;;;5035260;28;20572;-55
2021/09/26 12:16:15;;;;;;;6.95;2.30;;;;;;;;;;5049327;28;20079;-56
2021/09/26 12:18:48;;;;;;;10.98;2.72;;;;;;;;;;5031452;28;20044;-55
2021/09/26 12:21:14;;;;;;;8.00;2.70;;;;;;;;;;5047932;28;20176;-55
2021/09/26 12:23:48;;;;;;;6.25;2.28;;;;;;;;;;5029153;28;20037;-55
2021/09/26 12:26:18;;;;;;;7.22;2.40;;;;;;;;;;5050470;28;20036;-55
2021/09/26 12:28:44;;;;;;;4.10;1.83;;;;;;;;;;5051294;28;20135;-55
2021/09/26 12:31:09;;;;;;;5.43;1.90;;;;;;;;;;5049860;28;20036;-55
2021/09/26 12:33:45;;;;;;;6.22;1.95;;;;;;;;;;5047169;28;20045;-56
2021/09/26 12:36:14;;;;;;;11.00;2.30;;;;;;;;;;5049327;28;20047;-54
2021/09/26 12:38:58;;;;;;;4.80;1.98;;;;;;;;;;5046516;28;20040;-55
2021/09/26 12:41:35;;;;;;;8.27;2.40;;;;;;;;;;5029480;28;20440;-56
2021/09/26 12:44:05;;;;;;;7.70;2.40;;;;;;;;;;5031723;28;20133;-54
2021/09/26 12:46:37;;;;;;;6.55;2.28;;;;;;;;;;5033180;28;20521;-55
2021/09/26 12:49:04;;;;;;;8.38;2.00;;;;;;;;;;5032712;28;20557;-55
2021/09/26 12:51:33;;;;;;;6.97;2.38;;;;;;;;;;5031750;28;20650;-55
2021/09/26 12:54:00;;;;;;;4.75;2.20;;;;;;;;;;5033513;28;20516;-54
2021/09/26 12:56:27;;;;;;;8.48;2.30;;;;;;;;;;5030089;28;20490;-56
2021/09/26 12:58:53;;;;;;;9.00;2.10;;;;;;;;;;5029840;28;20051;-56
2021/09/26 13:01:23;;;;;;;7.95;2.55;;;;;;;;;;5029943;28;20128;-55
2021/09/26 13:03:51;;;;;;;13.18;2.20;;;;;;;;;;5018273;28;20033;-56
2021/09/26 13:06:36;;;;;;;5.93;2.10;;;;;;;;;;5032958;28;20518;-55
2021/09/26 13:09:16;;;;;;;8.95;2.20;;;;;;;;;;5029887;28;20175;-54
2021/09/26 13:11:42;;;;;;;5.07;2.20;;;;;;;;;;5027895;28;20037;-55
2021/09/26 13:14:15;;;;;;;7.05;2.28;;;;;;;;;;5030297;28;20033;-55
2021/09/26 13:16:46;;;;;;;4.38;2.05;;;;;;;;;;5028518;28;20059;-55
2021/09/26 13:19:27;;;;;;;5.80;2.30;;;;;;;;;;5031110;28;20967;-56
2021/09/26 13:22:11;;;;;;;5.25;2.28;;;;;;;;;;5030708;28;20044;-55
2021/09/26 13:24:45;;;;;;;7.65;2.47;;;;;;;;;;5030058;28;20068;-55
2021/09/26 13:27:28;;;;;;;6.22;2.30;;;;;;;;;;5028587;28;20052;-56
2021/09/26 13:29:54;;;;;;;7.00;2.27;;;;;;;;;;5029736;28;20041;-55
2021/09/26 13:32:31;;;;;;;9.73;2.72;;;;;;;;;;5028286;28;20279;-56
2021/09/26 13:34:59;;;;;;;7.95;2.35;;;;;;;;;;5028611;28;20832;-55
2021/09/26 13:37:25;;;;;;;6.13;2.25;;;;;;;;;;5031322;28;20068;-55
2021/09/26 13:39:58;;;;;;;7.10;2.80;;;;;;;;;;5032900;28;20032;-54
2021/09/26 13:42:26;;;;;;;8.35;2.45;;;;;;;;;;5038497;28;20151;-55
2021/09/26 13:44:56;;;;;;;5.30;2.10;;;;;;;;;;5046272;28;20037;-54
2021/09/26 13:47:22;;;;;;;6.97;2.60;;;;;;;;;;5046649;28;20037;-56
2021/09/26 13:49:52;;;;;;;6.65;2.38;;;;;;;;;;5047545;28;20094;-56
2021/09/26 13:52:20;;;;;;;7.70;2.47;;;;;;;;;;5046549;28;20041;-54
2021/09/26 13:54:46;;;;;;;4.65;2.30;;;;;;;;;;5047827;28;20131;-56
2021/09/26 13:57:12;;;;;;;6.47;2.17;;;;;;;;;;5048934;28;20051;-55
2021/09/26 13:59:38;;;;;;;4.88;1.92;;;;;;;;;;5046579;28;22036;-56
2021/09/26 14:02:05;;;;;;;6.97;2.20;;;;;;;;;;5047018;28;20131;-55
2021/09/26 14:04:30;;;;;;;8.85;2.20;;;;;;;;;;5047875;28;20127;-53
2021/09/26 14:06:56;;;;;;;5.57;2.13;;;;;;;;;;5047168;28;20051;-56
2021/09/26 14:09:22;;;;;;;6.72;2.38;;;;;;;;;;5048144;28;20163;-54
2021/09/26 14:11:48;;;;;;;6.47;2.30;;;;;;;;;;5050953;28;20465;-55
2021/09/26 14:14:14;;;;;;;8.52;2.53;;;;;;;;;;5052725;28;20094;-55
2021/09/26 14:16:39;;;;;;;6.32;2.25;;;;;;;;;;5052033;28;20071;-56
2021/09/26 14:19:05;;;;;;;11.27;2.40;;;;;;;;;;5051560;28;20040;-55
2021/09/26 14:21:31;;;;;;;8.57;2.50;;;;;;;;;;5050922;28;20043;-53
2021/09/26 14:23:57;;;;;;;4.90;2.42;;;;;;;;;;5052359;28;20036;-56
2021/09/26 14:26:24;;;;;;;6.07;2.38;;;;;;;;;;5049554;28;20578;-56
2021/09/26 14:28:52;;;;;;;6.00;2.05;;;;;;;;;;5050874;28;20481;-56
2021/09/26 14:31:19;;;;;;;11.18;2.67;;;;;;;;;;5050616;28;20042;-55
2021/09/26 14:33:46;;;;;;;9.82;2.45;;;;;;;;;;5051506;28;20463;-56
2021/09/26 14:36:12;;;;;;;9.40;2.78;;;;;;;;;;5052273;28;20289;-55
2021/09/26 14:38:39;;;;;;;8.00;2.40;;;;;;;;;;5049769;28;21538;-55
2021/09/26 14:41:05;;;;;;;6.35;2.58;;;;;;;;;;5051948;28;20045;-56
2021/09/26 14:43:31;;;;;;;11.65;3.20;;;;;;;;;;5049156;28;20044;-53